Time;durP1;ratioP1;P1;durP2;ratioP2;P2;SDS_P1;SDS_P2;PMS_P1;PMS_P2;Temp;Humidity;BMP_temperature;BMP_pressure;BME280_temperature;BME280_humidity;BME280_pressure;Samples;Min_cycle;Max_cycle;Signal;HPM_P1;HPM_P2
2022/09/24 00:01:39;;;;;;;6.15;2.63;;;;;;;;;;5033893;28;20033;-72
2022/09/24 00:04:07;;;;;;;3.40;2.70;;;;;;;;;;5033678;28;20023;-71
2022/09/24 00:06:34;;;;;;;5.40;2.70;;;;;;;;;;5033514;28;20393;-71
2022/09/24 00:09:01;;;;;;;3.60;2.70;;;;;;;;;;5033532;28;20032;-71
2022/09/24 00:11:28;;;;;;;4.93;2.97;;;;;;;;;;5033452;28;20037;-71
2022/09/24 00:13:57;;;;;;;3.75;2.42;;;;;;;;;;5034233;28;20037;-71
2022/09/24 00:16:24;;;;;;;4.57;2.88;;;;;;;;;;5033285;28;20206;-72
2022/09/24 00:18:51;;;;;;;5.97;2.55;;;;;;;;;;5033648;28;20067;-72
2022/09/24 00:21:19;;;;;;;3.25;2.03;;;;;;;;;;5033182;28;20025;-71
2022/09/24 00:23:48;;;;;;;2.05;1.85;;;;;;;;;;5033442;28;20028;-71
2022/09/24 00:29:00;;;;;;;3.20;2.03;;;;;;;;;;5033137;28;20025;-71
2022/09/24 00:31:26;;;;;;;3.63;2.22;;;;;;;;;;5033407;28;20021;-71
2022/09/24 00:33:53;;;;;;;2.97;2.38;;;;;;;;;;5033124;28;20405;-72
2022/09/24 00:36:20;;;;;;;2.50;1.92;;;;;;;;;;5032550;28;20035;-72
2022/09/24 00:38:50;;;;;;;2.55;1.95;;;;;;;;;;5032904;28;20055;-72
2022/09/24 00:41:19;;;;;;;2.50;2.25;;;;;;;;;;5048356;28;20033;-71
2022/09/24 00:43:46;;;;;;;3.05;2.13;;;;;;;;;;5032822;28;20777;-71
2022/09/24 00:46:18;;;;;;;4.15;1.90;;;;;;;;;;5032970;28;20103;-71
2022/09/24 00:48:46;;;;;;;3.97;1.70;;;;;;;;;;5032786;28;20393;-71
2022/09/24 00:51:14;;;;;;;5.18;2.15;;;;;;;;;;5032331;28;20024;-71
2022/09/24 00:53:40;;;;;;;2.10;1.90;;;;;;;;;;5031745;28;20478;-72
2022/09/24 00:56:10;;;;;;;2.28;2.08;;;;;;;;;;5032548;28;20036;-72
2022/09/24 00:58:37;;;;;;;3.13;2.03;;;;;;;;;;5032578;28;20033;-71
2022/09/24 01:01:04;;;;;;;3.92;2.00;;;;;;;;;;5032619;28;20517;-71
2022/09/24 01:03:32;;;;;;;1.95;1.75;;;;;;;;;;5032645;28;20028;-71
2022/09/24 01:05:58;;;;;;;2.05;1.85;;;;;;;;;;5032159;28;20481;-71
2022/09/24 01:08:24;;;;;;;5.30;2.20;;;;;;;;;;5031571;28;20048;-72
2022/09/24 01:11:09;;;;;;;3.05;2.20;;;;;;;;;;5032358;28;20036;-71
2022/09/24 01:13:39;;;;;;;2.90;2.17;;;;;;;;;;5032278;28;20049;-71
2022/09/24 01:16:14;;;;;;;2.92;2.40;;;;;;;;;;5047737;28;20037;-71
2022/09/24 01:18:44;;;;;;;2.97;2.40;;;;;;;;;;5032262;28;20490;-71
2022/09/24 01:21:25;;;;;;;3.42;2.28;;;;;;;;;;5031996;28;20475;-71
2022/09/24 01:24:08;;;;;;;2.45;2.25;;;;;;;;;;5032259;28;20389;-72
2022/09/24 01:26:55;;;;;;;2.65;1.90;;;;;;;;;;5032230;28;20401;-71
2022/09/24 01:29:30;;;;;;;5.32;2.08;;;;;;;;;;5032050;28;20032;-72
2022/09/24 01:32:10;;;;;;;3.38;2.20;;;;;;;;;;5032221;28;20482;-71
2022/09/24 01:34:41;;;;;;;2.40;2.05;;;;;;;;;;5031752;28;20047;-71
2022/09/24 01:37:08;;;;;;;2.92;2.30;;;;;;;;;;5031799;28;20036;-71
2022/09/24 01:39:36;;;;;;;6.28;2.67;;;;;;;;;;5032210;28;20033;-70
2022/09/24 01:42:02;;;;;;;2.83;2.20;;;;;;;;;;5032013;28;20498;-71
2022/09/24 01:44:29;;;;;;;2.40;1.98;;;;;;;;;;5032027;28;20029;-71
2022/09/24 01:46:55;;;;;;;2.38;2.17;;;;;;;;;;5032142;28;20017;-70
2022/09/24 01:49:21;;;;;;;3.15;2.33;;;;;;;;;;5031615;28;20033;-71
2022/09/24 01:51:51;;;;;;;3.75;2.17;;;;;;;;;;5030676;28;20031;-70
2022/09/24 01:54:20;;;;;;;4.38;2.20;;;;;;;;;;5031866;28;20043;-71
2022/09/24 01:57:13;;;;;;;2.70;1.80;;;;;;;;;;5031881;28;20044;-71
2022/09/24 01:59:54;;;;;;;2.30;2.10;;;;;;;;;;5030840;28;20441;-70
2022/09/24 02:02:27;;;;;;;2.33;1.90;;;;;;;;;;5030561;28;20027;-71
2022/09/24 02:05:11;;;;;;;2.28;2.00;;;;;;;;;;5031596;28;20028;-71
2022/09/24 02:07:42;;;;;;;4.75;2.10;;;;;;;;;;5031878;28;20029;-71
2022/09/24 02:10:19;;;;;;;4.97;2.15;;;;;;;;;;5031844;28;20025;-71
2022/09/24 02:12:46;;;;;;;3.30;2.00;;;;;;;;;;5031638;28;20057;-71
2022/09/24 02:15:16;;;;;;;6.47;1.90;;;;;;;;;;5031691;28;20028;-71
2022/09/24 02:17:45;;;;;;;6.85;2.10;;;;;;;;;;5031127;28;20036;-71
2022/09/24 02:20:14;;;;;;;2.50;2.28;;;;;;;;;;5034949;28;20385;-71
2022/09/24 02:22:41;;;;;;;8.15;2.40;;;;;;;;;;5035569;28;20433;-71
2022/09/24 02:25:10;;;;;;;6.45;2.50;;;;;;;;;;5051212;28;20024;-72
2022/09/24 02:27:36;;;;;;;2.50;2.20;;;;;;;;;;5035810;28;20037;-71
2022/09/24 02:30:02;;;;;;;2.40;2.20;;;;;;;;;;5035339;28;20021;-72
2022/09/24 02:32:30;;;;;;;2.60;2.22;;;;;;;;;;5035118;28;20520;-71
2022/09/24 02:35:00;;;;;;;2.13;1.90;;;;;;;;;;5035747;28;20017;-70
2022/09/24 02:37:26;;;;;;;2.75;2.15;;;;;;;;;;5034913;28;20154;-71
2022/09/24 02:39:52;;;;;;;2.45;2.15;;;;;;;;;;5035346;28;20022;-71
2022/09/24 02:42:19;;;;;;;6.40;2.28;;;;;;;;;;5035220;28;20029;-72
2022/09/24 02:44:46;;;;;;;3.65;2.10;;;;;;;;;;5035314;28;20021;-71
2022/09/24 02:47:12;;;;;;;6.63;2.42;;;;;;;;;;5034770;28;20025;-71
2022/09/24 02:49:39;;;;;;;5.82;2.78;;;;;;;;;;5034088;28;20040;-71
2022/09/24 02:52:05;;;;;;;4.40;2.88;;;;;;;;;;5035087;28;20096;-72
2022/09/24 02:54:31;;;;;;;4.82;2.70;;;;;;;;;;5034937;28;20440;-71
2022/09/24 02:56:58;;;;;;;6.15;2.85;;;;;;;;;;5034780;28;20033;-71
2022/09/24 02:59:24;;;;;;;3.30;2.80;;;;;;;;;;5034913;28;20405;-71
2022/09/24 03:01:50;;;;;;;4.55;2.60;;;;;;;;;;5034485;28;20032;-71
2022/09/24 03:04:17;;;;;;;2.75;2.45;;;;;;;;;;5033646;28;20371;-71
2022/09/24 03:06:43;;;;;;;7.55;2.53;;;;;;;;;;5034816;28;20018;-71
2022/09/24 03:09:11;;;;;;;5.72;2.55;;;;;;;;;;5034854;28;20478;-71
2022/09/24 03:11:38;;;;;;;3.50;2.35;;;;;;;;;;5034576;28;20045;-72
2022/09/24 03:14:04;;;;;;;2.63;2.42;;;;;;;;;;5034622;28;20022;-71
2022/09/24 03:16:32;;;;;;;3.25;2.88;;;;;;;;;;5034380;28;20029;-71
2022/09/24 03:18:58;;;;;;;4.38;2.47;;;;;;;;;;5034294;28;20033;-71
2022/09/24 03:21:25;;;;;;;3.70;2.90;;;;;;;;;;5034822;28;20021;-71
2022/09/24 03:23:51;;;;;;;3.95;2.80;;;;;;;;;;5034478;28;20026;-71
2022/09/24 03:26:18;;;;;;;5.55;3.38;;;;;;;;;;5034412;28;20478;-71
2022/09/24 03:28:44;;;;;;;4.35;2.72;;;;;;;;;;5034409;28;20032;-71
2022/09/24 03:31:11;;;;;;;5.18;2.60;;;;;;;;;;5032897;28;20029;-71
2022/09/24 03:33:42;;;;;;;3.72;2.72;;;;;;;;;;5034537;28;20032;-71
2022/09/24 03:36:08;;;;;;;2.92;2.25;;;;;;;;;;5034287;28;20018;-71
2022/09/24 03:38:35;;;;;;;4.45;2.50;;;;;;;;;;5033997;28;20045;-71
2022/09/24 03:41:01;;;;;;;3.05;2.60;;;;;;;;;;5034048;28;20379;-71
2022/09/24 03:43:28;;;;;;;5.30;3.03;;;;;;;;;;5034349;28;20082;-71
2022/09/24 03:45:54;;;;;;;4.32;2.50;;;;;;;;;;5034013;28;20033;-71
2022/09/24 03:48:22;;;;;;;3.28;2.60;;;;;;;;;;5034004;28;20024;-72
2022/09/24 03:50:49;;;;;;;2.85;2.22;;;;;;;;;;5033933;28;20030;-71
2022/09/24 03:53:15;;;;;;;3.22;2.75;;;;;;;;;;5033895;28;20017;-71
2022/09/24 03:56:08;;;;;;;2.88;2.58;;;;;;;;;;5033768;28;20386;-70
2022/09/24 03:58:36;;;;;;;3.58;3.15;;;;;;;;;;5032861;28;20117;-71
2022/09/24 04:01:03;;;;;;;4.68;2.50;;;;;;;;;;5033397;28;20035;-71
2022/09/24 04:03:29;;;;;;;3.33;2.35;;;;;;;;;;5033785;28;20425;-71
2022/09/24 04:05:55;;;;;;;6.05;2.70;;;;;;;;;;5033619;28;20053;-71
2022/09/24 04:08:22;;;;;;;3.22;2.53;;;;;;;;;;5033731;28;20379;-72
2022/09/24 04:10:50;;;;;;;2.50;2.30;;;;;;;;;;5033492;28;20020;-71
2022/09/24 04:13:17;;;;;;;5.60;2.20;;;;;;;;;;5033323;28;20091;-70
2022/09/24 04:15:43;;;;;;;3.33;2.90;;;;;;;;;;5032213;28;20029;-71
2022/09/24 04:18:10;;;;;;;8.38;2.80;;;;;;;;;;5031979;28;20041;-71
2022/09/24 04:20:37;;;;;;;5.15;2.90;;;;;;;;;;5033222;28;20435;-71
2022/09/24 04:23:03;;;;;;;3.30;3.00;;;;;;;;;;5033365;28;20025;-71
2022/09/24 04:25:31;;;;;;;3.10;2.80;;;;;;;;;;5033235;28;20026;-71
2022/09/24 04:27:58;;;;;;;3.25;2.95;;;;;;;;;;5032809;28;20024;-71
2022/09/24 04:30:25;;;;;;;3.90;2.78;;;;;;;;;;5032845;28;20041;-71
2022/09/24 04:32:52;;;;;;;3.13;2.83;;;;;;;;;;5033301;28;20389;-71
2022/09/24 04:35:19;;;;;;;2.85;2.65;;;;;;;;;;5033086;28;20033;-71
2022/09/24 04:37:46;;;;;;;4.57;2.67;;;;;;;;;;5032726;28;20037;-71
2022/09/24 04:40:12;;;;;;;5.30;2.65;;;;;;;;;;5033236;28;20017;-71
2022/09/24 04:42:39;;;;;;;4.15;2.63;;;;;;;;;;5032676;28;20033;-71
2022/09/24 04:45:06;;;;;;;2.60;2.40;;;;;;;;;;5033112;28;20026;-71
2022/09/24 04:47:33;;;;;;;7.93;2.65;;;;;;;;;;5033124;28;20025;-71
2022/09/24 04:50:01;;;;;;;3.47;2.50;;;;;;;;;;5032718;28;20021;-71
2022/09/24 04:52:30;;;;;;;2.83;2.63;;;;;;;;;;5032832;28;20028;-71
2022/09/24 04:54:56;;;;;;;3.78;2.92;;;;;;;;;;5032759;28;20031;-71
2022/09/24 04:57:23;;;;;;;3.05;2.47;;;;;;;;;;5032803;28;20532;-71
2022/09/24 04:59:49;;;;;;;2.55;2.35;;;;;;;;;;5032765;28;20010;-71
2022/09/24 05:02:16;;;;;;;3.22;2.63;;;;;;;;;;5032537;28;20482;-71
2022/09/24 05:04:42;;;;;;;4.40;2.80;;;;;;;;;;5032579;28;20057;-71
2022/09/24 05:07:09;;;;;;;3.88;2.67;;;;;;;;;;5032762;28;20036;-71
2022/09/24 05:09:35;;;;;;;4.05;2.95;;;;;;;;;;5031532;28;20021;-71
2022/09/24 05:12:03;;;;;;;3.45;2.75;;;;;;;;;;5032193;28;20054;-71
2022/09/24 05:14:29;;;;;;;3.05;2.75;;;;;;;;;;5032275;28;20514;-71
2022/09/24 05:16:56;;;;;;;3.22;2.80;;;;;;;;;;5032455;28;20033;-71
2022/09/24 05:19:22;;;;;;;3.92;2.30;;;;;;;;;;5032448;28;20034;-70
2022/09/24 05:21:49;;;;;;;2.78;2.58;;;;;;;;;;5032205;28;20030;-71
2022/09/24 05:24:15;;;;;;;6.68;2.55;;;;;;;;;;5032375;28;20033;-71
2022/09/24 05:29:27;;;;;;;3.67;2.80;;;;;;;;;;5032510;28;20028;-71
2022/09/24 05:31:53;;;;;;;10.32;2.65;;;;;;;;;;5032473;28;20025;-72
2022/09/24 05:34:20;;;;;;;7.88;2.45;;;;;;;;;;5032342;28;20035;-71
2022/09/24 05:36:46;;;;;;;8.45;2.70;;;;;;;;;;5032311;28;20026;-71
2022/09/24 05:39:13;;;;;;;4.95;3.05;;;;;;;;;;5031789;28;20021;-71
2022/09/24 05:41:39;;;;;;;5.43;2.80;;;;;;;;;;5031589;28;20029;-71
2022/09/24 05:44:06;;;;;;;3.35;2.60;;;;;;;;;;5031984;28;20029;-72
2022/09/24 05:46:33;;;;;;;3.00;2.60;;;;;;;;;;5032272;28;20023;-71
2022/09/24 05:48:59;;;;;;;4.38;2.80;;;;;;;;;;5032012;28;20032;-71
2022/09/24 05:51:25;;;;;;;2.97;2.78;;;;;;;;;;5032137;28;20026;-71
2022/09/24 05:53:52;;;;;;;4.68;2.75;;;;;;;;;;5033003;28;20516;-71
2022/09/24 05:56:18;;;;;;;3.13;2.72;;;;;;;;;;5035903;28;20025;-71
2022/09/24 05:58:44;;;;;;;3.45;3.15;;;;;;;;;;5035976;28;20469;-72
2022/09/24 06:01:10;;;;;;;5.72;3.03;;;;;;;;;;5036076;28;20408;-71
2022/09/24 06:03:37;;;;;;;5.55;3.00;;;;;;;;;;5035955;28;20018;-72
2022/09/24 06:06:03;;;;;;;4.43;3.10;;;;;;;;;;5036161;28;20034;-72
2022/09/24 06:08:31;;;;;;;4.30;2.78;;;;;;;;;;5035855;28;20076;-71
2022/09/24 06:11:01;;;;;;;5.22;2.97;;;;;;;;;;5035676;28;20025;-71
2022/09/24 06:13:28;;;;;;;4.93;3.50;;;;;;;;;;5035721;28;20021;-71
2022/09/24 06:16:01;;;;;;;3.13;2.75;;;;;;;;;;5035766;28;20029;-71
2022/09/24 06:18:28;;;;;;;3.50;3.20;;;;;;;;;;5035149;28;20032;-71
2022/09/24 06:20:54;;;;;;;4.30;3.40;;;;;;;;;;5035398;28;20397;-71
2022/09/24 06:23:21;;;;;;;4.30;3.33;;;;;;;;;;5035563;28;20029;-71
2022/09/24 06:25:51;;;;;;;6.85;3.10;;;;;;;;;;5035161;28;20033;-71
2022/09/24 06:28:17;;;;;;;3.83;3.03;;;;;;;;;;5035346;28;20022;-72
2022/09/24 06:30:43;;;;;;;5.75;3.38;;;;;;;;;;5035765;28;20038;-71
2022/09/24 06:33:11;;;;;;;5.50;3.22;;;;;;;;;;5035362;28;20067;-71
2022/09/24 06:35:38;;;;;;;5.75;3.30;;;;;;;;;;5035511;28;20029;-71
2022/09/24 06:38:06;;;;;;;6.55;3.58;;;;;;;;;;5050382;28;20045;-71
2022/09/24 06:40:32;;;;;;;4.82;3.03;;;;;;;;;;5034881;28;20025;-71
2022/09/24 06:42:58;;;;;;;3.38;2.95;;;;;;;;;;5035294;28;20364;-71
2022/09/24 06:45:25;;;;;;;5.10;3.00;;;;;;;;;;5033905;28;20409;-71
2022/09/24 06:47:55;;;;;;;4.72;3.05;;;;;;;;;;5035086;28;20021;-72
2022/09/24 06:50:22;;;;;;;4.60;2.83;;;;;;;;;;5034797;28;20478;-72
2022/09/24 06:52:48;;;;;;;4.75;3.20;;;;;;;;;;5034633;28;20037;-71
2022/09/24 06:55:15;;;;;;;4.38;3.20;;;;;;;;;;5034877;28;20032;-72
2022/09/24 06:57:41;;;;;;;11.00;3.65;;;;;;;;;;5034807;28;20409;-71
2022/09/24 07:00:08;;;;;;;7.30;3.08;;;;;;;;;;5035055;28;20021;-71
2022/09/24 07:02:35;;;;;;;7.82;2.85;;;;;;;;;;5034948;28;20029;-71
2022/09/24 07:05:01;;;;;;;5.80;3.22;;;;;;;;;;5034810;28;20024;-71
2022/09/24 07:07:33;;;;;;;5.88;3.03;;;;;;;;;;5034606;28;20448;-71
2022/09/24 07:10:01;;;;;;;4.28;3.00;;;;;;;;;;5034346;28;20021;-71
2022/09/24 07:12:31;;;;;;;3.20;2.90;;;;;;;;;;5034295;28;20572;-71
2022/09/24 07:14:57;;;;;;;5.28;3.00;;;;;;;;;;5034520;28;20025;-71
2022/09/24 07:17:24;;;;;;;3.90;3.08;;;;;;;;;;5034369;28;20038;-71
2022/09/24 07:19:51;;;;;;;6.07;2.97;;;;;;;;;;5033104;28;20040;-72
2022/09/24 07:22:17;;;;;;;4.35;3.00;;;;;;;;;;5034075;28;20039;-71
2022/09/24 07:24:43;;;;;;;3.25;2.60;;;;;;;;;;5034398;28;20047;-72
2022/09/24 07:27:10;;;;;;;4.82;3.00;;;;;;;;;;5034274;28;20033;-72
2022/09/24 07:29:37;;;;;;;6.50;3.60;;;;;;;;;;5034407;28;20032;-72
2022/09/24 07:32:04;;;;;;;4.32;3.20;;;;;;;;;;5034085;28;20571;-71
2022/09/24 07:34:30;;;;;;;3.35;3.05;;;;;;;;;;5034176;28;20437;-71
2022/09/24 07:36:56;;;;;;;4.45;3.20;;;;;;;;;;5033797;28;20021;-71
2022/09/24 07:39:23;;;;;;;6.82;3.33;;;;;;;;;;5033956;28;20037;-72
2022/09/24 07:41:51;;;;;;;5.90;3.53;;;;;;;;;;5033997;28;20026;-71
2022/09/24 07:44:21;;;;;;;3.58;3.22;;;;;;;;;;5034449;28;20039;-71
2022/09/24 07:46:48;;;;;;;5.28;3.33;;;;;;;;;;5034409;28;20017;-72
2022/09/24 07:49:15;;;;;;;4.30;3.22;;;;;;;;;;5034022;28;20598;-71
2022/09/24 07:51:42;;;;;;;9.38;3.33;;;;;;;;;;5033576;28;20024;-72
2022/09/24 07:54:09;;;;;;;4.55;3.72;;;;;;;;;;5034065;28;20040;-71
2022/09/24 07:56:36;;;;;;;4.32;3.58;;;;;;;;;;5049393;28;20044;-71
2022/09/24 07:59:03;;;;;;;5.18;3.28;;;;;;;;;;5032829;28;20029;-72
2022/09/24 08:01:30;;;;;;;6.53;3.25;;;;;;;;;;5033587;28;20103;-71
2022/09/24 08:03:58;;;;;;;7.15;3.25;;;;;;;;;;5033616;28;20466;-72
2022/09/24 08:06:24;;;;;;;2.95;2.72;;;;;;;;;;5033658;28;20017;-72
2022/09/24 08:08:55;;;;;;;3.90;3.15;;;;;;;;;;5033986;28;20032;-71
2022/09/24 08:11:21;;;;;;;3.38;2.88;;;;;;;;;;5033604;28;20042;-71
2022/09/24 08:13:48;;;;;;;3.83;3.03;;;;;;;;;;5033697;28;20021;-72
2022/09/24 08:16:15;;;;;;;4.47;3.25;;;;;;;;;;5033377;28;20044;-71
2022/09/24 08:18:42;;;;;;;6.03;3.10;;;;;;;;;;5033349;28;20052;-72
2022/09/24 08:21:10;;;;;;;7.00;2.65;;;;;;;;;;5033215;28;20052;-71
2022/09/24 08:23:37;;;;;;;7.70;2.78;;;;;;;;;;5033332;28;20397;-72
2022/09/24 08:26:04;;;;;;;4.63;2.75;;;;;;;;;;5033326;28;20032;-72
2022/09/24 08:28:31;;;;;;;3.03;2.65;;;;;;;;;;5033085;28;20024;-71
2022/09/24 08:30:59;;;;;;;5.40;2.60;;;;;;;;;;5033303;28;20474;-72
2022/09/24 08:33:26;;;;;;;4.28;2.67;;;;;;;;;;5033261;28;20490;-72
2022/09/24 08:35:52;;;;;;;3.55;2.42;;;;;;;;;;5032986;28;20063;-72
2022/09/24 08:38:21;;;;;;;3.53;2.40;;;;;;;;;;5032887;28;20033;-72
2022/09/24 08:41:08;;;;;;;2.25;2.08;;;;;;;;;;5032907;28;20028;-72
2022/09/24 08:43:46;;;;;;;4.00;2.42;;;;;;;;;;5010968;28;20153;-71
2022/09/24 08:49:04;;;;;;;4.78;2.10;;;;;;;;;;5010592;28;20045;-72
2022/09/24 08:51:35;;;;;;;3.45;2.38;;;;;;;;;;5010954;28;20018;-72
2022/09/24 08:54:01;;;;;;;2.20;2.00;;;;;;;;;;5010734;28;20080;-72
2022/09/24 08:56:34;;;;;;;1.90;1.80;;;;;;;;;;5010810;28;20026;-73
2022/09/24 08:59:16;;;;;;;2.30;2.05;;;;;;;;;;5010806;28;20049;-72
2022/09/24 09:01:52;;;;;;;2.53;2.00;;;;;;;;;;5010500;28;20030;-72
2022/09/24 09:04:36;;;;;;;2.08;1.90;;;;;;;;;;5010276;28;20030;-72
2022/09/24 09:07:08;;;;;;;1.90;1.80;;;;;;;;;;5010722;28;20030;-72
2022/09/24 09:09:55;;;;;;;5.85;1.75;;;;;;;;;;5010676;28;20036;-72
2022/09/24 09:12:31;;;;;;;2.67;1.88;;;;;;;;;;5010597;28;20046;-72
2022/09/24 09:15:10;;;;;;;2.17;1.80;;;;;;;;;;5010790;28;20045;-72
2022/09/24 09:17:51;;;;;;;3.67;2.10;;;;;;;;;;5010530;28;20044;-73
2022/09/24 09:20:38;;;;;;;2.55;1.98;;;;;;;;;;5010964;28;20045;-72
2022/09/24 09:23:21;;;;;;;4.05;2.10;;;;;;;;;;5012414;28;20056;-72
2022/09/24 09:26:08;;;;;;;2.88;1.95;;;;;;;;;;5012557;28;20364;-72
2022/09/24 09:28:35;;;;;;;3.42;2.10;;;;;;;;;;5007482;28;20026;-72
2022/09/24 09:31:05;;;;;;;2.83;2.20;;;;;;;;;;4992776;28;20035;-72
2022/09/24 09:33:53;;;;;;;2.97;2.00;;;;;;;;;;4992551;28;20022;-72
2022/09/24 09:36:38;;;;;;;5.75;2.50;;;;;;;;;;4992772;28;20026;-72
2022/09/24 09:39:23;;;;;;;2.97;2.08;;;;;;;;;;4992638;28;20044;-72
2022/09/24 09:41:55;;;;;;;3.30;2.10;;;;;;;;;;4992553;28;20516;-72
2022/09/24 09:44:25;;;;;;;5.90;2.50;;;;;;;;;;5007859;28;20034;-72
2022/09/24 09:46:52;;;;;;;;;;;;;;;;;;4992839;28;20023;-72
2022/09/24 09:49:18;;;;;;;5.35;2.80;;;;;;;;;;4992562;28;19952;-72
2022/09/24 09:51:46;;;;;;;5.25;2.47;;;;;;;;;;4992482;28;20376;-72
2022/09/24 09:54:12;;;;;;;4.00;2.33;;;;;;;;;;4992977;28;20022;-72
2022/09/24 09:56:43;;;;;;;4.32;2.60;;;;;;;;;;4992599;28;20026;-72
2022/09/24 09:59:09;;;;;;;;;;;;;;;;;;4993001;28;20031;-72
2022/09/24 10:01:39;;;;;;;2.63;2.33;;;;;;;;;;4992118;28;19910;-72
2022/09/24 10:04:06;;;;;;;2.95;2.42;;;;;;;;;;4992622;28;20017;-72
2022/09/24 10:06:33;;;;;;;2.67;2.30;;;;;;;;;;4992399;28;20030;-72
2022/09/24 10:09:20;;;;;;;4.95;2.65;;;;;;;;;;4992605;28;20030;-72
2022/09/24 10:11:47;;;;;;;5.03;2.35;;;;;;;;;;5010118;28;20536;-72
2022/09/24 10:14:18;;;;;;;4.47;2.72;;;;;;;;;;5031824;28;20030;-72
2022/09/24 10:16:46;;;;;;;3.55;2.60;;;;;;;;;;5031791;28;20022;-70
2022/09/24 10:19:23;;;;;;;7.32;2.35;;;;;;;;;;5030633;28;20041;-72
2022/09/24 10:21:50;;;;;;;2.70;2.45;;;;;;;;;;5031670;28;20486;-72
2022/09/24 10:24:19;;;;;;;3.95;2.90;;;;;;;;;;5031750;28;20021;-72
2022/09/24 10:26:46;;;;;;;5.20;2.70;;;;;;;;;;5031641;28;20025;-71
2022/09/24 10:32:28;;;;;;;2.55;2.30;;;;;;;;;;5029783;28;20045;-72
2022/09/24 10:35:14;;;;;;;4.38;2.85;;;;;;;;;;5031645;28;20500;-72
2022/09/24 10:37:49;;;;;;;4.65;2.70;;;;;;;;;;5031169;28;20041;-71
2022/09/24 10:40:22;;;;;;;3.55;2.80;;;;;;;;;;5033082;28;20034;-72
2022/09/24 10:42:54;;;;;;;3.22;2.45;;;;;;;;;;5035304;28;20371;-72
2022/09/24 10:45:21;;;;;;;3.72;2.50;;;;;;;;;;5034978;28;20433;-72
2022/09/24 10:47:50;;;;;;;4.03;2.72;;;;;;;;;;5035165;28;20496;-72
2022/09/24 10:50:26;;;;;;;3.63;2.65;;;;;;;;;;5035409;28;20026;-71
2022/09/24 10:52:57;;;;;;;4.20;3.05;;;;;;;;;;5035325;28;20013;-72
2022/09/24 10:55:29;;;;;;;3.45;2.80;;;;;;;;;;5034955;28;20029;-72
2022/09/24 10:58:14;;;;;;;4.75;2.55;;;;;;;;;;5034974;28;20045;-71
2022/09/24 11:00:50;;;;;;;5.35;2.85;;;;;;;;;;5034927;28;20029;-72
2022/09/24 11:03:52;;;;;;;3.17;2.50;;;;;;;;;;5034973;28;20474;-72
2022/09/24 11:06:37;;;;;;;4.20;2.45;;;;;;;;;;5013100;28;20030;-72
2022/09/24 11:09:12;;;;;;;2.80;2.25;;;;;;;;;;5012820;28;20495;-72
2022/09/24 11:11:59;;;;;;;5.70;2.80;;;;;;;;;;5012825;28;20049;-71
2022/09/24 11:14:48;;;;;;;3.33;2.25;;;;;;;;;;5002618;28;20496;-72
2022/09/24 11:17:32;;;;;;;3.38;2.45;;;;;;;;;;5012712;28;20038;-72
2022/09/24 11:20:33;;;;;;;7.72;2.72;;;;;;;;;;5012912;28;20026;-72
2022/09/24 11:23:11;;;;;;;3.83;2.60;;;;;;;;;;4954362;29;20033;-72
2022/09/24 11:25:46;;;;;;;3.67;2.40;;;;;;;;;;4954229;29;20039;-72
2022/09/24 11:28:30;;;;;;;3.08;2.60;;;;;;;;;;4953486;29;20143;-71
2022/09/24 11:31:05;;;;;;;5.05;2.70;;;;;;;;;;4935008;29;20032;-71
2022/09/24 11:33:51;;;;;;;3.40;2.70;;;;;;;;;;4934978;29;20050;-72
2022/09/24 11:36:31;;;;;;;7.40;2.92;;;;;;;;;;4934850;29;20027;-72
2022/09/24 11:38:58;;;;;;;;;;;;;;;;;;4949565;29;20518;-72
2022/09/24 11:41:44;;;;;;;3.35;2.60;;;;;;;;;;4935294;29;20412;-72
2022/09/24 11:44:20;;;;;;;3.20;2.25;;;;;;;;;;4934625;29;20054;-72
2022/09/24 11:46:52;;;;;;;4.00;2.53;;;;;;;;;;4934952;29;20027;-72
2022/09/24 11:49:33;;;;;;;3.22;2.42;;;;;;;;;;4934537;29;20416;-72
2022/09/24 11:52:11;;;;;;;3.13;2.30;;;;;;;;;;4918063;29;20034;-72
2022/09/24 11:54:40;;;;;;;3.88;2.75;;;;;;;;;;4934945;29;20036;-72
2022/09/24 11:57:14;;;;;;;4.22;2.50;;;;;;;;;;4979306;28;20044;-72
2022/09/24 11:59:53;;;;;;;3.53;2.70;;;;;;;;;;5014102;28;20494;-72
2022/09/24 12:02:25;;;;;;;3.15;2.55;;;;;;;;;;5014099;28;20395;-72
2022/09/24 12:04:52;;;;;;;4.95;2.60;;;;;;;;;;5014055;28;20026;-72
2022/09/24 12:07:23;;;;;;;4.57;2.88;;;;;;;;;;5013873;28;20471;-72
2022/09/24 12:09:53;;;;;;;3.08;2.60;;;;;;;;;;5013735;28;20364;-72
2022/09/24 12:12:26;;;;;;;5.18;2.50;;;;;;;;;;5026846;28;20049;-72
2022/09/24 12:15:01;;;;;;;3.67;2.90;;;;;;;;;;5033766;28;20033;-72
2022/09/24 12:17:54;;;;;;;5.80;2.40;;;;;;;;;;5033556;28;20030;-72
2022/09/24 12:20:23;;;;;;;4.90;2.80;;;;;;;;;;5032765;28;20052;-72
2022/09/24 12:22:54;;;;;;;3.65;2.38;;;;;;;;;;5033412;28;20058;-72
2022/09/24 12:25:21;;;;;;;3.80;2.42;;;;;;;;;;5033792;28;20027;-72
2022/09/24 12:27:47;;;;;;;4.18;2.60;;;;;;;;;;5033215;28;20032;-72
2022/09/24 12:33:03;;;;;;;2.67;2.30;;;;;;;;;;5033277;28;20056;-73
2022/09/24 12:35:39;;;;;;;2.00;1.80;;;;;;;;;;5033072;28;20021;-73
2022/09/24 12:38:12;;;;;;;2.55;2.22;;;;;;;;;;5032974;28;20387;-72
2022/09/24 12:40:57;;;;;;;3.17;2.30;;;;;;;;;;5032849;28;20025;-71
2022/09/24 12:43:36;;;;;;;2.97;2.30;;;;;;;;;;5032844;28;20032;-72
2022/09/24 12:46:04;;;;;;;3.35;2.60;;;;;;;;;;5033216;28;20417;-72
2022/09/24 12:48:33;;;;;;;4.60;2.60;;;;;;;;;;5033068;28;20482;-72
2022/09/24 12:51:01;;;;;;;2.83;2.25;;;;;;;;;;5033023;28;20026;-72
2022/09/24 12:53:35;;;;;;;5.53;3.00;;;;;;;;;;5033121;28;20029;-72
2022/09/24 12:56:02;;;;;;;4.10;2.53;;;;;;;;;;5031706;28;20095;-72
2022/09/24 12:58:45;;;;;;;5.63;2.70;;;;;;;;;;5032751;28;20025;-72
2022/09/24 13:01:23;;;;;;;3.90;2.90;;;;;;;;;;5032686;28;20059;-72
2022/09/24 13:04:02;;;;;;;4.50;2.42;;;;;;;;;;5032246;28;20025;-72
2022/09/24 13:06:33;;;;;;;6.05;2.60;;;;;;;;;;5032674;28;20029;-72
2022/09/24 13:09:00;;;;;;;3.88;2.65;;;;;;;;;;5032799;28;20029;-72
2022/09/24 13:11:28;;;;;;;4.97;2.75;;;;;;;;;;5030994;28;20049;-72
2022/09/24 13:14:04;;;;;;;3.35;2.65;;;;;;;;;;5032432;28;20029;-72
2022/09/24 13:16:31;;;;;;;2.78;2.47;;;;;;;;;;5032333;28;20037;-72
2022/09/24 13:19:01;;;;;;;3.05;2.55;;;;;;;;;;5032388;28;20111;-72
2022/09/24 13:21:28;;;;;;;5.97;2.90;;;;;;;;;;5032371;28;20425;-72
2022/09/24 13:23:55;;;;;;;4.13;2.58;;;;;;;;;;5032175;28;20069;-72
2022/09/24 13:26:24;;;;;;;3.60;2.28;;;;;;;;;;5031969;28;20026;-72
2022/09/24 13:28:59;;;;;;;3.08;2.20;;;;;;;;;;5032142;28;20026;-72
2022/09/24 13:31:26;;;;;;;3.10;2.30;;;;;;;;;;5032253;28;20033;-72
2022/09/24 13:33:55;;;;;;;3.38;2.25;;;;;;;;;;5032280;28;20044;-73
2022/09/24 13:36:24;;;;;;;3.05;2.10;;;;;;;;;;5032415;28;20036;-72
2022/09/24 13:39:02;;;;;;;1.95;1.75;;;;;;;;;;5031704;28;20037;-72
2022/09/24 13:41:28;;;;;;;2.47;1.80;;;;;;;;;;5032268;28;20025;-72
2022/09/24 13:44:03;;;;;;;2.30;1.92;;;;;;;;;;5031964;28;20043;-72
2022/09/24 13:46:31;;;;;;;2.35;1.75;;;;;;;;;;5032359;28;20018;-73
2022/09/24 13:49:00;;;;;;;3.38;1.73;;;;;;;;;;5032210;28;20030;-72
2022/09/24 13:51:29;;;;;;;2.95;1.73;;;;;;;;;;5032316;28;20032;-72
2022/09/24 13:53:55;;;;;;;2.60;1.23;;;;;;;;;;5031492;28;20022;-72
2022/09/24 13:56:22;;;;;;;4.35;1.88;;;;;;;;;;5032027;28;20035;-72
2022/09/24 13:58:50;;;;;;;2.03;1.80;;;;;;;;;;5031943;28;20044;-72
2022/09/24 14:01:18;;;;;;;7.75;1.92;;;;;;;;;;5031668;28;20055;-72
2022/09/24 14:04:11;;;;;;;5.13;1.95;;;;;;;;;;5032062;28;20224;-71
2022/09/24 14:06:38;;;;;;;6.03;2.00;;;;;;;;;;5009991;28;20041;-72
2022/09/24 14:09:22;;;;;;;3.58;2.03;;;;;;;;;;5009468;28;20034;-72
2022/09/24 14:11:53;;;;;;;3.83;2.20;;;;;;;;;;5009688;28;20410;-72
2022/09/24 14:14:23;;;;;;;5.13;2.28;;;;;;;;;;5010013;28;20030;-72
2022/09/24 14:16:53;;;;;;;2.95;2.28;;;;;;;;;;5014309;28;20038;-72
2022/09/24 14:19:20;;;;;;;4.15;2.28;;;;;;;;;;5013627;28;20030;-72
2022/09/24 14:21:49;;;;;;;3.53;2.28;;;;;;;;;;5013677;28;20029;-72
2022/09/24 14:24:18;;;;;;;4.05;2.17;;;;;;;;;;5013293;28;20492;-72
2022/09/24 14:26:53;;;;;;;7.38;1.90;;;;;;;;;;5013606;28;20429;-72
2022/09/24 14:29:24;;;;;;;4.50;2.03;;;;;;;;;;5013160;28;20022;-71
2022/09/24 14:31:55;;;;;;;3.25;2.05;;;;;;;;;;5013456;28;20586;-72
2022/09/24 14:34:28;;;;;;;3.20;2.08;;;;;;;;;;5013496;28;20510;-72
2022/09/24 14:36:55;;;;;;;4.05;2.00;;;;;;;;;;5013296;28;20091;-72
2022/09/24 14:39:25;;;;;;;2.85;1.80;;;;;;;;;;5013322;28;20052;-72
2022/09/24 14:41:51;;;;;;;3.75;2.30;;;;;;;;;;5013294;28;20030;-71
2022/09/24 14:44:18;;;;;;;5.03;2.50;;;;;;;;;;5032313;28;20040;-72
2022/09/24 14:46:50;;;;;;;5.00;2.40;;;;;;;;;;5035276;28;20021;-72
2022/09/24 14:49:18;;;;;;;3.15;2.40;;;;;;;;;;5034987;28;20535;-72
2022/09/24 14:51:55;;;;;;;2.35;2.05;;;;;;;;;;5034815;28;20027;-72
2022/09/24 14:54:35;;;;;;;6.07;1.92;;;;;;;;;;5035057;28;20031;-72
2022/09/24 14:57:10;;;;;;;5.68;2.10;;;;;;;;;;5035382;28;20032;-72
2022/09/24 14:59:37;;;;;;;4.70;2.28;;;;;;;;;;5035047;28;20034;-72
2022/09/24 15:02:19;;;;;;;5.32;1.90;;;;;;;;;;5035223;28;20024;-72
2022/09/24 15:04:47;;;;;;;4.95;1.98;;;;;;;;;;5034812;28;20520;-72
2022/09/24 15:07:15;;;;;;;3.60;1.70;;;;;;;;;;5034555;28;20096;-72
2022/09/24 15:09:43;;;;;;;5.82;2.10;;;;;;;;;;5034698;28;20036;-72
2022/09/24 15:12:17;;;;;;;2.60;2.00;;;;;;;;;;5034810;28;20044;-72
2022/09/24 15:14:53;;;;;;;5.80;1.95;;;;;;;;;;5033471;28;20025;-71
2022/09/24 15:17:21;;;;;;;3.70;1.88;;;;;;;;;;5034628;28;20036;-72